Time;durP1;ratioP1;P1;durP2;ratioP2;P2;SDS_P1;SDS_P2;PMS_P1;PMS_P2;Temp;Humidity;BMP_temperature;BMP_pressure;BME280_temperature;BME280_humidity;BME280_pressure;Samples;Min_cycle;Max_cycle;Signal;HPM_P1;HPM_P2
2023/04/21 00:00:58;;;;;;;15.40;14.07;;;;;;;-142.25;100.00;58004.16;4912260;29;20873;-62
2023/04/21 00:03:27;;;;;;;15.67;14.33;;;;;;;-142.25;100.00;58004.16;4911662;29;20296;-61
2023/04/21 00:05:57;;;;;;;14.57;13.27;;;;;;;-142.25;100.00;58004.16;4911435;29;20733;-61
2023/04/21 00:08:23;;;;;;;15.30;13.90;;;;;;;-142.25;100.00;58004.16;4914140;29;20379;-62
2023/04/21 00:10:49;;;;;;;16.43;15.07;;;;;;;-142.25;100.00;58004.16;4914044;29;20284;-63
2023/04/21 00:13:15;;;;;;;13.20;11.97;;;;;;;-142.25;100.00;58004.16;4914193;29;20296;-61
2023/04/21 00:15:40;;;;;;;17.63;16.20;;;;;;;-142.25;100.00;58004.16;4912934;29;20052;-61
2023/04/21 00:18:06;;;;;;;16.83;15.47;;;;;;;-142.25;100.00;58004.16;4911950;29;20056;-61
2023/04/21 00:20:32;;;;;;;16.23;14.87;;;;;;;-142.25;100.00;58004.16;4927092;29;20042;-62
2023/04/21 00:22:58;;;;;;;14.50;13.20;;;;;;;-142.25;100.00;58004.16;4913123;29;20879;-62
2023/04/21 00:25:25;;;;;;;16.57;15.17;;;;;;;-142.25;100.00;58004.16;4913971;29;20400;-62
2023/04/21 00:27:50;;;;;;;15.17;13.83;;;;;;;-142.25;100.00;58004.16;4922877;29;20287;-61
2023/04/21 00:30:17;;;;;;;14.80;13.47;;;;;;;-142.25;100.00;58004.16;4913885;29;20338;-61
2023/04/21 00:32:43;;;;;;;14.10;12.83;;;;;;;-142.25;100.00;58004.16;4918078;29;20475;-64
2023/04/21 00:35:09;;;;;;;14.43;13.13;;;;;;;-142.25;100.00;58004.16;4920305;29;20383;-61
2023/04/21 00:37:35;;;;;;;15.43;14.03;;;;;;;-142.25;100.00;58004.16;4925829;29;20299;-61
2023/04/21 00:40:03;;;;;;;15.07;13.73;;;;;;;-142.25;100.00;58004.16;4910282;29;20296;-62
2023/04/21 00:42:29;;;;;;;16.07;14.73;;;;;;;-142.25;100.00;58004.16;4909107;29;20299;-61
2023/04/21 00:44:55;;;;;;;15.30;13.93;;;;;;;-142.25;100.00;58004.16;4913860;29;20311;-61
2023/04/21 00:47:22;;;;;;;13.80;12.50;;;;;;;-142.25;100.00;58004.16;4911723;29;20122;-61
2023/04/21 00:49:49;;;;;;;14.03;12.73;;;;;;;-142.25;100.00;58004.16;4928310;29;20383;-61
2023/04/21 00:52:16;;;;;;;14.20;12.90;;;;;;;-142.25;100.00;58004.16;4912922;29;20288;-61
2023/04/21 00:54:43;;;;;;;15.77;14.43;;;;;;;-142.25;100.00;58004.16;4927107;29;20299;-61
2023/04/21 00:57:10;;;;;;;17.80;16.33;;;;;;;-142.25;100.00;58004.16;4927593;29;20299;-64
2023/04/21 00:59:36;;;;;;;14.50;13.20;;;;;;;-142.25;100.00;58004.16;4913487;29;20338;-61
2023/04/21 01:02:02;;;;;;;15.97;14.60;;;;;;;-142.25;100.00;58004.16;4912172;29;20370;-61
2023/04/21 01:04:34;;;;;;;15.73;14.33;;;;;;;-142.25;100.00;58004.16;4914126;29;20054;-61
2023/04/21 01:07:04;;;;;;;20.23;18.52;;;;;;;-142.25;100.00;58004.16;4910020;29;20039;-61
2023/04/21 01:09:31;;;;;;;15.83;14.50;;;;;;;-142.25;100.00;58004.16;4924715;29;20035;-61
2023/04/21 01:12:02;;;;;;;15.83;14.47;;;;;;;-142.25;100.00;58004.16;4926008;29;20303;-62
2023/04/21 01:14:28;;;;;;;15.47;14.13;;;;;;;-142.25;100.00;58004.16;4911691;29;20370;-61
2023/04/21 01:16:54;;;;;;;14.87;13.53;;;;;;;-142.25;100.00;58004.16;4919009;29;20292;-62
2023/04/21 01:19:20;;;;;;;14.87;13.63;;;;;;;-142.25;100.00;58004.16;4925603;29;20300;-62
2023/04/21 01:21:46;;;;;;;14.43;13.10;;;;;;;-142.25;100.00;58004.16;4911417;29;20296;-61
2023/04/21 01:24:12;;;;;;;17.63;16.17;;;;;;;-142.25;100.00;58004.16;4910528;29;20039;-62
2023/04/21 01:26:38;;;;;;;15.47;14.00;;;;;;;-142.25;100.00;58004.16;4911025;29;20052;-62
2023/04/21 01:29:03;;;;;;;16.13;14.73;;;;;;;-142.25;100.00;58004.16;4911984;29;20071;-62
2023/04/21 01:31:31;;;;;;;13.97;12.63;;;;;;;-142.25;100.00;58004.16;4925342;29;20426;-62
2023/04/21 01:33:56;;;;;;;18.43;16.90;;;;;;;-142.25;100.00;58004.16;4917894;29;20304;-61
2023/04/21 01:36:22;;;;;;;16.30;14.87;;;;;;;-142.25;100.00;58004.16;4911018;29;20496;-62
2023/04/21 01:38:51;;;;;;;34.50;31.40;;;;;;;-142.25;100.00;58004.16;4915881;29;20054;-62
2023/04/21 01:41:17;;;;;;;15.87;14.47;;;;;;;-142.25;100.00;58004.16;4910464;29;20292;-64
2023/04/21 01:43:42;;;;;;;18.73;17.17;;;;;;;-142.25;100.00;58004.16;4911359;29;20059;-61
2023/04/21 01:46:08;;;;;;;17.30;15.87;;;;;;;-142.25;100.00;58004.16;4909221;29;20410;-62
2023/04/21 01:48:36;;;;;;;16.13;14.73;;;;;;;-142.25;100.00;58004.16;4908946;29;20130;-61
2023/04/21 01:51:04;;;;;;;15.23;13.83;;;;;;;-142.25;100.00;58004.16;4908498;29;20308;-61
2023/04/21 01:53:30;;;;;;;17.23;15.80;;;;;;;-142.25;100.00;58004.16;4911626;29;20891;-62
2023/04/21 01:55:56;;;;;;;15.40;14.07;;;;;;;-142.25;100.00;58004.16;4926097;29;20142;-62
2023/04/21 01:58:21;;;;;;;16.40;14.97;;;;;;;-142.25;100.00;58004.16;4913281;29;20055;-62
2023/04/21 02:00:47;;;;;;;15.43;14.10;;;;;;;-142.25;100.00;58004.16;4925441;29;20055;-62
2023/04/21 02:03:13;;;;;;;16.67;15.23;;;;;;;-142.25;100.00;58004.16;4910704;29;20099;-61
2023/04/21 02:05:40;;;;;;;17.57;16.07;;;;;;;-142.25;100.00;58004.16;4911368;29;20047;-61
2023/04/21 02:08:06;;;;;;;15.57;14.17;;;;;;;-142.25;100.00;58004.16;4910778;29;20279;-61
2023/04/21 02:10:32;;;;;;;15.87;14.53;;;;;;;-142.25;100.00;58004.16;4910697;29;20524;-62
2023/04/21 02:12:58;;;;;;;15.90;14.57;;;;;;;-142.25;100.00;58004.16;4911429;29;20040;-61
2023/04/21 02:15:23;;;;;;;14.87;13.60;;;;;;;-142.25;100.00;58004.16;4910556;29;20410;-61
2023/04/21 02:17:50;;;;;;;15.67;14.33;;;;;;;-142.25;100.00;58004.16;4924954;29;20112;-61
2023/04/21 02:20:15;;;;;;;17.30;15.90;;;;;;;-142.25;100.00;58004.16;4925294;29;20292;-61
2023/04/21 02:22:41;;;;;;;14.67;13.43;;;;;;;-142.25;100.00;58004.16;4920408;29;20148;-61
2023/04/21 02:25:07;;;;;;;15.53;14.23;;;;;;;-142.25;100.00;58004.16;4921864;29;20046;-61
2023/04/21 02:27:32;;;;;;;15.50;14.23;;;;;;;-142.25;100.00;58004.16;4914221;29;20047;-62
2023/04/21 02:29:58;;;;;;;14.93;13.63;;;;;;;-142.25;100.00;58004.16;4929154;29;20688;-67
2023/04/21 02:32:24;;;;;;;16.10;14.57;;;;;;;-142.25;100.00;58004.16;4915610;29;20480;-65
2023/04/21 02:34:49;;;;;;;15.30;13.97;;;;;;;-142.25;100.00;58004.16;4915096;29;20716;-66
2023/04/21 02:37:15;;;;;;;17.30;15.83;;;;;;;-142.25;100.00;58004.16;4915217;29;20051;-65
2023/04/21 02:39:42;;;;;;;15.10;13.80;;;;;;;-142.25;100.00;58004.16;4915828;29;20384;-65
2023/04/21 02:42:08;;;;;;;18.67;17.17;;;;;;;-142.25;100.00;58004.16;4897179;29;20131;-66
2023/04/21 02:44:37;;;;;;;15.37;14.03;;;;;;;-142.25;100.00;58004.16;4929716;29;20435;-66
2023/04/21 02:47:02;;;;;;;14.87;13.57;;;;;;;-142.25;100.00;58004.16;4914892;29;20044;-65
2023/04/21 02:49:28;;;;;;;13.67;12.40;;;;;;;-142.25;100.00;58004.16;4915257;29;20624;-65
2023/04/21 02:51:57;;;;;;;16.43;15.00;;;;;;;-142.25;100.00;58004.16;4928572;29;20146;-65
2023/04/21 02:54:22;;;;;;;16.10;14.73;;;;;;;-142.25;100.00;58004.16;4924588;29;20297;-65
2023/04/21 02:56:48;;;;;;;16.77;15.37;;;;;;;-142.25;100.00;58004.16;4916947;29;20307;-65
2023/04/21 02:59:16;;;;;;;16.53;15.10;;;;;;;-142.25;100.00;58004.16;4915259;29;20357;-66
2023/04/21 03:01:42;;;;;;;15.77;14.37;;;;;;;-142.25;100.00;58004.16;4913704;29;20416;-65
2023/04/21 03:04:08;;;;;;;15.67;14.33;;;;;;;-142.25;100.00;58004.16;4911423;29;20307;-66
2023/04/21 03:06:33;;;;;;;15.17;13.83;;;;;;;-142.25;100.00;58004.16;4928647;29;20060;-66
2023/04/21 03:08:59;;;;;;;17.97;16.50;;;;;;;-142.25;100.00;58004.16;4913969;29;20372;-64
2023/04/21 03:11:25;;;;;;;15.40;14.03;;;;;;;-142.25;100.00;58004.16;4906958;29;20160;-66
2023/04/21 03:13:52;;;;;;;16.80;15.43;;;;;;;-142.25;100.00;58004.16;4913824;29;20284;-66
2023/04/21 03:16:18;;;;;;;16.10;14.73;;;;;;;-142.25;100.00;58004.16;4914650;29;20303;-61
2023/04/21 03:18:44;;;;;;;15.73;14.40;;;;;;;-142.25;100.00;58004.16;4913146;29;20048;-62
2023/04/21 03:21:11;;;;;;;16.83;15.43;;;;;;;-142.25;100.00;58004.16;4930430;29;20295;-63
2023/04/21 03:23:36;;;;;;;17.07;15.60;;;;;;;-142.25;100.00;58004.16;4914900;29;20761;-65
2023/04/21 03:26:06;;;;;;;15.30;13.97;;;;;;;-142.25;100.00;58004.16;4929599;29;20044;-65
2023/04/21 03:28:34;;;;;;;24.90;23.00;;;;;;;-142.25;100.00;58004.16;4913404;29;20070;-64
2023/04/21 03:31:01;;;;;;;19.80;18.20;;;;;;;-142.25;100.00;58004.16;4927726;29;20295;-62
2023/04/21 03:33:26;;;;;;;21.70;20.03;;;;;;;-142.25;100.00;58004.16;4906927;29;20286;-62
2023/04/21 03:35:52;;;;;;;16.70;15.27;;;;;;;-142.25;100.00;58004.16;4927746;29;20044;-61
2023/04/21 03:38:18;;;;;;;15.53;14.17;;;;;;;-142.25;100.00;58004.16;4914941;29;20051;-61
2023/04/21 03:40:44;;;;;;;18.10;16.60;;;;;;;-142.25;100.00;58004.16;4921939;29;20040;-62
2023/04/21 03:43:10;;;;;;;17.77;16.30;;;;;;;-142.25;100.00;58004.16;4928719;29;20304;-62
2023/04/21 03:45:37;;;;;;;19.10;17.57;;;;;;;-142.25;100.00;58004.16;4929341;29;20051;-62
2023/04/21 03:48:02;;;;;;;16.20;14.87;;;;;;;-142.25;100.00;58004.16;4915305;29;20873;-65
2023/04/21 03:50:28;;;;;;;17.77;16.33;;;;;;;-142.25;100.00;58004.16;4912159;29;20571;-61
2023/04/21 03:52:54;;;;;;;16.97;15.57;;;;;;;-142.25;100.00;58004.16;4911958;29;20131;-62
2023/04/21 03:55:19;;;;;;;18.40;16.93;;;;;;;-142.25;100.00;58004.16;4912467;29;20420;-61
2023/04/21 03:57:45;;;;;;;16.87;15.43;;;;;;;-142.25;100.00;58004.16;4913220;29;20147;-61
2023/04/21 04:00:11;;;;;;;16.83;15.40;;;;;;;-142.25;100.00;58004.16;4912371;29;20086;-61
2023/04/21 04:02:40;;;;;;;15.30;13.97;;;;;;;-142.25;100.00;58004.16;4913408;29;20511;-61
2023/04/21 04:05:06;;;;;;;17.23;15.73;;;;;;;-142.25;100.00;58004.16;4912818;29;20315;-62
2023/04/21 04:07:32;;;;;;;17.63;16.13;;;;;;;-142.25;100.00;58004.16;4912034;29;20051;-60
2023/04/21 04:09:58;;;;;;;15.83;14.50;;;;;;;-142.25;100.00;58004.16;4911411;29;20300;-62
2023/04/21 04:12:24;;;;;;;14.80;13.47;;;;;;;-142.25;100.00;58004.16;4913948;29;20649;-61
2023/04/21 04:14:49;;;;;;;17.07;15.63;;;;;;;-142.25;100.00;58004.16;4926299;29;20044;-62
2023/04/21 04:17:15;;;;;;;15.17;13.80;;;;;;;-142.25;100.00;58004.16;4927388;29;20051;-62
2023/04/21 04:19:41;;;;;;;13.53;12.30;;;;;;;-142.25;100.00;58004.16;4913266;29;20407;-62
2023/04/21 04:22:06;;;;;;;20.17;18.57;;;;;;;-142.25;100.00;58004.16;4912755;29;20139;-62
2023/04/21 04:24:32;;;;;;;15.67;14.27;;;;;;;-142.25;100.00;58004.16;4912674;29;20042;-63
2023/04/21 04:27:00;;;;;;;15.93;14.60;;;;;;;-142.25;100.00;58004.16;4913000;29;20053;-62
2023/04/21 04:29:26;;;;;;;14.57;13.23;;;;;;;-142.25;100.00;58004.16;4914009;29;20358;-62
2023/04/21 04:31:52;;;;;;;17.10;15.63;;;;;;;-142.25;100.00;58004.16;4911968;29;20318;-64
2023/04/21 04:34:18;;;;;;;15.27;13.87;;;;;;;-142.25;100.00;58004.16;4911859;29;20048;-62
2023/04/21 04:36:44;;;;;;;15.57;14.20;;;;;;;-142.25;100.00;58004.16;4912451;29;20052;-66
2023/04/21 04:39:11;;;;;;;15.80;14.43;;;;;;;-142.25;100.00;58004.16;4913387;29;20039;-65
2023/04/21 04:41:37;;;;;;;14.67;13.37;;;;;;;-142.25;100.00;58004.16;4912864;29;20299;-65
2023/04/21 04:44:03;;;;;;;21.53;19.87;;;;;;;-142.25;100.00;58004.16;4912558;29;20632;-65
2023/04/21 04:46:30;;;;;;;17.00;15.57;;;;;;;-142.25;100.00;58004.16;4910602;29;20174;-64
2023/04/21 04:48:56;;;;;;;14.83;13.53;;;;;;;-142.25;100.00;58004.16;4912797;29;20758;-64
2023/04/21 04:51:22;;;;;;;15.53;14.20;;;;;;;-142.25;100.00;58004.16;4912567;29;20294;-65
2023/04/21 04:53:48;;;;;;;16.73;15.37;;;;;;;-142.25;100.00;58004.16;4912860;29;20507;-65
2023/04/21 04:56:15;;;;;;;17.17;15.73;;;;;;;-142.25;100.00;58004.16;4912683;29;20358;-64
2023/04/21 04:58:41;;;;;;;17.53;16.03;;;;;;;-142.25;100.00;58004.16;4923868;29;20292;-72
2023/04/21 05:01:14;;;;;;;16.70;15.27;;;;;;;-142.25;100.00;58004.16;4910992;29;20391;-70
2023/04/21 05:03:40;;;;;;;24.60;22.73;;;;;;;-142.25;100.00;58004.16;4910680;29;20047;-71
2023/04/21 05:06:06;;;;;;;21.13;19.47;;;;;;;-142.25;100.00;58004.16;4911186;29;20364;-62
2023/04/21 05:08:31;;;;;;;17.33;15.87;;;;;;;-142.25;100.00;58004.16;4913547;29;20054;-69
2023/04/21 05:10:57;;;;;;;17.47;16.03;;;;;;;-142.25;100.00;58004.16;4910356;29;20504;-63
2023/04/21 05:13:23;;;;;;;16.80;15.40;;;;;;;-142.25;100.00;58004.16;4909779;29;20050;-63
2023/04/21 05:15:49;;;;;;;16.03;14.67;;;;;;;-142.25;100.00;58004.16;4924683;29;20791;-62
2023/04/21 05:18:14;;;;;;;19.30;17.63;;;;;;;-142.25;100.00;58004.16;4912928;29;20066;-62
2023/04/21 05:20:41;;;;;;;18.90;17.37;;;;;;;-142.25;100.00;58004.16;4925250;29;20045;-62
2023/04/21 05:23:06;;;;;;;14.73;13.47;;;;;;;-142.25;100.00;58004.16;4911880;29;20074;-63
2023/04/21 05:25:32;;;;;;;16.07;14.73;;;;;;;-142.25;100.00;58004.16;4910807;29;20307;-63
2023/04/21 05:27:58;;;;;;;14.73;13.43;;;;;;;-142.25;100.00;58004.16;4912820;29;20539;-62
2023/04/21 05:30:24;;;;;;;16.73;15.37;;;;;;;-142.25;100.00;58004.16;4909985;29;20052;-64
2023/04/21 05:32:49;;;;;;;15.87;14.50;;;;;;;-142.25;100.00;58004.16;4909724;29;20051;-62
2023/04/21 05:35:15;;;;;;;16.93;15.50;;;;;;;-142.25;100.00;58004.16;4909379;29;20052;-62
2023/04/21 05:37:40;;;;;;;18.77;17.23;;;;;;;-142.25;100.00;58004.16;4910208;29;20036;-62
2023/04/21 05:40:06;;;;;;;14.03;12.77;;;;;;;-142.25;100.00;58004.16;4911541;29;20051;-63
2023/04/21 05:42:32;;;;;;;16.10;14.70;;;;;;;-142.25;100.00;58004.16;4911379;28;20516;-64
2023/04/21 05:44:57;;;;;;;17.20;15.80;;;;;;;-142.25;100.00;58004.16;4910807;29;20040;-63
2023/04/21 05:47:23;;;;;;;17.87;16.43;;;;;;;-142.25;100.00;58004.16;4909920;29;20136;-62
2023/04/21 05:49:52;;;;;;;17.23;15.83;;;;;;;-142.25;100.00;58004.16;4911514;29;20562;-63
2023/04/21 05:52:22;;;;;;;15.97;14.60;;;;;;;-142.25;100.00;58004.16;4911200;29;20052;-63
2023/04/21 05:54:47;;;;;;;18.23;16.77;;;;;;;-142.25;100.00;58004.16;4925024;29;20547;-63
2023/04/21 05:57:15;;;;;;;14.83;13.50;;;;;;;-142.25;100.00;58004.16;4914779;29;20295;-63
2023/04/21 05:59:40;;;;;;;24.10;22.27;;;;;;;-142.25;100.00;58004.16;4913365;29;20083;-62
2023/04/21 06:02:06;;;;;;;15.67;14.43;;;;;;;-142.25;100.00;58004.16;4928206;29;20772;-62
2023/04/21 06:04:32;;;;;;;12.87;11.80;;;;;;;-142.25;100.00;58004.16;4915490;29;20140;-62
2023/04/21 06:07:03;;;;;;;19.10;17.73;;;;;;;-142.25;100.00;58004.16;4914345;29;20102;-63
2023/04/21 06:09:29;;;;;;;15.47;14.30;;;;;;;-142.25;100.00;58004.16;4914260;29;20048;-63
2023/04/21 06:11:56;;;;;;;21.30;19.73;;;;;;;-142.25;100.00;58004.16;4913780;29;20361;-63
2023/04/21 06:14:22;;;;;;;16.03;14.87;;;;;;;-142.25;100.00;58004.16;4912991;28;20488;-64
2023/04/21 06:16:47;;;;;;;16.10;14.93;;;;;;;-142.25;100.00;58004.16;4914627;29;20732;-63
2023/04/21 06:19:13;;;;;;;17.17;15.90;;;;;;;-142.25;100.00;58004.16;4913868;29;21038;-63
2023/04/21 06:21:38;;;;;;;14.60;13.43;;;;;;;-142.25;100.00;58004.16;4915013;29;20048;-64
2023/04/21 06:24:04;;;;;;;15.70;14.50;;;;;;;-142.25;100.00;58004.16;4915671;29;20051;-64
2023/04/21 06:26:30;;;;;;;15.70;14.50;;;;;;;-142.25;100.00;58004.16;4919921;29;20099;-63
2023/04/21 06:28:55;;;;;;;15.73;14.60;;;;;;;-142.25;100.00;58004.16;4914462;29;20610;-63
2023/04/21 06:31:21;;;;;;;15.87;14.67;;;;;;;-142.25;100.00;58004.16;4913705;29;20703;-64
2023/04/21 06:33:47;;;;;;;19.93;18.57;;;;;;;-142.25;100.00;58004.16;4912682;29;20051;-63
2023/04/21 06:36:12;;;;;;;14.80;13.67;;;;;;;-142.25;100.00;58004.16;4912910;29;20047;-63
2023/04/21 06:38:40;;;;;;;17.07;15.83;;;;;;;-142.25;100.00;58004.16;4913671;29;20143;-63
2023/04/21 06:41:06;;;;;;;16.73;15.50;;;;;;;-142.25;100.00;58004.16;4911230;29;20052;-63
2023/04/21 06:43:32;;;;;;;14.03;12.90;;;;;;;-142.25;100.00;58004.16;4914960;29;20054;-64
2023/04/21 06:45:57;;;;;;;14.53;13.40;;;;;;;-142.25;100.00;58004.16;4927726;29;20051;-62
2023/04/21 06:48:23;;;;;;;15.77;14.57;;;;;;;-142.25;100.00;58004.16;4913301;29;20245;-63
2023/04/21 06:50:49;;;;;;;17.70;16.33;;;;;;;-142.25;100.00;58004.16;4928570;29;20457;-64
2023/04/21 06:53:16;;;;;;;16.70;15.40;;;;;;;-142.25;100.00;58004.16;4915339;29;20071;-63
2023/04/21 06:55:42;;;;;;;15.03;13.83;;;;;;;-142.25;100.00;58004.16;4915318;29;20510;-64
2023/04/21 06:58:08;;;;;;;17.00;15.77;;;;;;;-142.25;100.00;58004.16;4914631;29;20245;-63
2023/04/21 07:00:33;;;;;;;15.43;14.27;;;;;;;-142.25;100.00;58004.16;4912185;29;20462;-63
2023/04/21 07:02:59;;;;;;;19.37;18.10;;;;;;;-142.25;100.00;58004.16;4913088;29;20157;-64
2023/04/21 07:05:24;;;;;;;14.70;13.63;;;;;;;-142.25;100.00;58004.16;4925823;29;20048;-63
2023/04/21 07:07:50;;;;;;;18.77;17.43;;;;;;;-142.25;100.00;58004.16;4912228;29;20562;-62
2023/04/21 07:10:18;;;;;;;20.17;18.87;;;;;;;-142.25;100.00;58004.16;4919200;29;20050;-63
2023/04/21 07:12:47;;;;;;;15.27;14.10;;;;;;;-142.25;100.00;58004.16;4914896;29;20054;-62
2023/04/21 07:15:12;;;;;;;19.57;18.23;;;;;;;-142.25;100.00;58004.16;4928108;29;20040;-63
2023/04/21 07:17:38;;;;;;;17.53;16.20;;;;;;;-142.25;100.00;58004.16;4913370;29;20044;-62
2023/04/21 07:20:04;;;;;;;19.53;18.27;;;;;;;-142.25;100.00;58004.16;4914906;29;20568;-63
2023/04/21 07:22:30;;;;;;;13.93;13.03;;;;;;;-142.25;100.00;58004.16;4914903;29;20231;-64
2023/04/21 07:24:55;;;;;;;13.93;13.00;;;;;;;-142.25;100.00;58004.16;4916703;29;20051;-63
2023/04/21 07:27:21;;;;;;;15.43;14.43;;;;;;;-142.25;100.00;58004.16;4914007;29;20605;-62
2023/04/21 07:29:47;;;;;;;16.50;15.40;;;;;;;-142.25;100.00;58004.16;4912526;29;20644;-67
2023/04/21 07:32:12;;;;;;;15.10;14.10;;;;;;;-142.25;100.00;58004.16;4912805;29;20065;-64
2023/04/21 07:34:38;;;;;;;14.20;13.27;;;;;;;-142.25;100.00;58004.16;4912394;29;20044;-64
2023/04/21 07:37:04;;;;;;;17.87;16.77;;;;;;;-142.25;100.00;58004.16;4912052;29;20415;-64
2023/04/21 07:39:29;;;;;;;13.70;12.77;;;;;;;-142.25;100.00;58004.16;4927887;29;20106;-63
2023/04/21 07:41:55;;;;;;;16.33;15.27;;;;;;;-142.25;100.00;58004.16;4911462;29;20060;-64
2023/04/21 07:44:21;;;;;;;15.40;14.47;;;;;;;-142.25;100.00;58004.16;4913214;29;20507;-63
2023/04/21 07:46:46;;;;;;;15.17;14.20;;;;;;;-142.25;100.00;58004.16;4913645;29;20135;-64
2023/04/21 07:49:12;;;;;;;13.83;12.90;;;;;;;-142.25;100.00;58004.16;4912715;29;20283;-63
2023/04/21 07:51:39;;;;;;;17.07;15.97;;;;;;;-142.25;100.00;58004.16;4913201;29;20127;-63
2023/04/21 07:54:04;;;;;;;16.80;15.80;;;;;;;-142.25;100.00;58004.16;4914175;29;20074;-63
2023/04/21 07:56:30;;;;;;;16.00;15.13;;;;;;;-142.25;100.00;58004.16;4913188;29;20131;-64
2023/04/21 07:58:56;;;;;;;49.13;46.60;;;;;;;-142.25;100.00;58004.16;4903288;29;20478;-63
2023/04/21 08:01:22;;;;;;;30.63;29.20;;;;;;;-142.25;100.00;58004.16;4903276;28;20063;-64
2023/04/21 08:03:48;;;;;;;17.00;16.10;;;;;;;-142.25;100.00;58004.16;4902998;29;20119;-64
2023/04/21 08:06:13;;;;;;;17.73;16.73;;;;;;;-142.25;100.00;58004.16;4907872;29;20067;-63
2023/04/21 08:08:39;;;;;;;16.43;15.40;;;;;;;-142.25;100.00;58004.16;4911474;29;20047;-64
2023/04/21 08:11:05;;;;;;;17.13;16.13;;;;;;;-142.25;100.00;58004.16;4912343;29;20079;-63
2023/04/21 08:13:30;;;;;;;18.77;17.73;;;;;;;-142.25;100.00;58004.16;4914547;29;20178;-64
2023/04/21 08:15:56;;;;;;;15.53;14.63;;;;;;;-142.25;100.00;58004.16;4912553;29;20680;-63
2023/04/21 08:18:22;;;;;;;17.60;16.60;;;;;;;-142.25;100.00;58004.16;4919390;29;20468;-63
2023/04/21 08:20:48;;;;;;;20.07;18.97;;;;;;;-142.25;100.00;58004.16;4911000;28;20114;-63
2023/04/21 08:23:14;;;;;;;13.40;12.60;;;;;;;-142.25;100.00;58004.16;4911362;29;20535;-64
2023/04/21 08:25:40;;;;;;;18.73;17.70;;;;;;;-142.25;100.00;58004.16;4919319;29;20095;-63
2023/04/21 08:28:06;;;;;;;17.50;16.50;;;;;;;-142.25;100.00;58004.16;4912088;29;20137;-63
2023/04/21 08:30:32;;;;;;;21.73;20.50;;;;;;;-142.25;100.00;58004.16;4913167;29;20071;-63
2023/04/21 08:32:57;;;;;;;21.53;20.17;;;;;;;-142.25;100.00;58004.16;4911105;29;20052;-63
2023/04/21 08:35:23;;;;;;;22.77;21.37;;;;;;;-142.25;100.00;58004.16;4911554;29;20059;-63
2023/04/21 08:37:49;;;;;;;21.70;20.33;;;;;;;-142.25;100.00;58004.16;4909644;29;20071;-63
2023/04/21 08:40:15;;;;;;;21.20;19.73;;;;;;;-142.25;100.00;58004.16;4910914;29;20133;-63
2023/04/21 08:42:41;;;;;;;24.97;23.30;;;;;;;-142.25;100.00;58004.16;4918753;29;20052;-63
2023/04/21 08:45:08;;;;;;;22.97;21.30;;;;;;;-142.25;100.00;58004.16;4911161;29;20059;-63
2023/04/21 08:47:34;;;;;;;23.60;21.97;;;;;;;-142.25;100.00;58004.16;4911911;29;20052;-65
2023/04/21 08:50:00;;;;;;;22.03;20.43;;;;;;;-142.25;100.00;58004.16;4910332;29;20075;-66
2023/04/21 08:52:26;;;;;;;23.10;21.47;;;;;;;-142.25;100.00;58004.16;4912355;29;20055;-64
2023/04/21 08:54:54;;;;;;;22.40;20.80;;;;;;;-142.25;100.00;58004.16;4908842;29;20042;-65
2023/04/21 08:57:19;;;;;;;23.97;22.30;;;;;;;-142.25;100.00;58004.16;4910301;29;20052;-64
2023/04/21 08:59:45;;;;;;;25.80;24.07;;;;;;;-142.25;100.00;58004.16;4910684;29;20044;-63
2023/04/21 09:02:16;;;;;;;23.17;21.57;;;;;;;-142.25;100.00;58004.16;4903587;29;20343;-64
2023/04/21 09:04:43;;;;;;;25.27;23.57;;;;;;;-142.25;100.00;58004.16;4924922;29;20566;-64
2023/04/21 09:07:10;;;;;;;22.87;21.27;;;;;;;-142.25;100.00;58004.16;4910074;29;20209;-63
2023/04/21 09:09:55;;;;;;;20.10;18.63;;;;;;;-142.25;100.00;58004.16;4911610;29;20087;-64
2023/04/21 09:12:22;;;;;;;27.60;25.83;;;;;;;-142.25;100.00;58004.16;4908927;29;20056;-64
2023/04/21 09:14:48;;;;;;;21.60;20.07;;;;;;;-142.25;100.00;58004.16;4910496;29;20043;-64
2023/04/21 09:17:20;;;;;;;24.57;22.93;;;;;;;-142.25;100.00;58004.16;4908944;29;20047;-64
2023/04/21 09:19:46;;;;;;;23.43;21.80;;;;;;;-142.25;100.00;58004.16;4910252;28;20660;-66
2023/04/21 09:22:16;;;;;;;22.17;20.60;;;;;;;-142.25;100.00;58004.16;4911334;29;20063;-64
2023/04/21 09:24:47;;;;;;;23.13;21.30;;;;;;;-142.25;100.00;58004.16;4911571;29;20044;-64
2023/04/21 09:27:15;;;;;;;21.87;20.33;;;;;;;-142.25;100.00;58004.16;4910692;29;20050;-67
2023/04/21 09:29:47;;;;;;;25.70;23.93;;;;;;;-142.25;100.00;58004.16;4911597;29;20463;-64
2023/04/21 09:32:17;;;;;;;22.03;20.47;;;;;;;-142.25;100.00;58004.16;4915308;29;20043;-64
2023/04/21 09:34:43;;;;;;;21.00;19.50;;;;;;;-142.25;100.00;58004.16;4918030;29;20050;-64
2023/04/21 09:37:11;;;;;;;24.90;23.20;;;;;;;-142.25;100.00;58004.16;4919054;29;20185;-59
2023/04/21 09:39:37;;;;;;;27.40;25.53;;;;;;;-142.25;100.00;58004.16;4917152;29;20044;-62
2023/04/21 09:42:02;;;;;;;29.73;27.73;;;;;;;-142.25;100.00;58004.16;4918153;29;20484;-67
2023/04/21 09:44:28;;;;;;;22.17;20.63;;;;;;;-142.25;100.00;58004.16;4919710;29;20055;-68
2023/04/21 09:47:02;;;;;;;24.00;22.40;;;;;;;-142.25;100.00;58004.16;4917320;29;20432;-67
2023/04/21 09:49:30;;;;;;;23.40;21.80;;;;;;;-142.25;100.00;58004.16;4917971;29;20048;-67
2023/04/21 09:52:00;;;;;;;22.50;20.93;;;;;;;-142.25;100.00;58004.16;4928989;28;20526;-67
2023/04/21 09:54:31;;;;;;;24.90;23.23;;;;;;;-142.25;100.00;58004.16;4917794;29;20602;-67
2023/04/21 09:57:00;;;;;;;23.27;21.63;;;;;;;-142.25;100.00;58004.16;4918686;29;20051;-67
2023/04/21 09:59:34;;;;;;;21.60;20.07;;;;;;;-142.25;100.00;58004.16;4916833;29;20621;-63
2023/04/21 10:02:04;;;;;;;24.07;22.43;;;;;;;-142.25;100.00;58004.16;4917655;29;20040;-64
2023/04/21 10:04:32;;;;;;;22.60;21.03;;;;;;;-142.25;100.00;58004.16;4925495;29;20202;-64
2023/04/21 10:06:59;;;;;;;24.90;23.23;;;;;;;-142.25;100.00;58004.16;4916647;29;20134;-64
2023/04/21 10:09:29;;;;;;;25.27;23.57;;;;;;;-142.25;100.00;58004.16;4917735;29;20561;-65
2023/04/21 10:11:56;;;;;;;23.00;21.43;;;;;;;-142.25;100.00;58004.16;4931340;29;20043;-64
2023/04/21 10:14:24;;;;;;;28.53;26.70;;;;;;;-142.25;100.00;58004.16;4917128;29;20035;-64
2023/04/21 10:17:16;;;;;;;27.00;25.27;;;;;;;-142.25;100.00;58004.16;4914953;29;20138;-65
2023/04/21 10:19:56;;;;;;;21.37;19.87;;;;;;;-142.25;100.00;58004.16;4917842;29;20064;-64
2023/04/21 10:22:27;;;;;;;23.70;22.07;;;;;;;-142.25;100.00;58004.16;4916685;29;20411;-64
2023/04/21 10:24:57;;;;;;;23.57;21.93;;;;;;;-142.25;100.00;58004.16;4917944;29;20214;-63
2023/04/21 10:27:40;;;;;;;22.90;21.33;;;;;;;-142.25;100.00;58004.16;4918345;29;20590;-64
2023/04/21 10:30:19;;;;;;;24.83;23.17;;;;;;;-142.25;100.00;58004.16;4916226;29;20082;-64
2023/04/21 10:32:45;;;;;;;24.83;23.10;;;;;;;-142.25;100.00;58004.16;4915559;29;20048;-64
2023/04/21 10:35:14;;;;;;;25.77;24.00;;;;;;;-142.25;100.00;58004.16;4915576;29;20480;-64
2023/04/21 10:37:41;;;;;;;25.87;24.10;;;;;;;-142.25;100.00;58004.16;4915615;29;20554;-65
2023/04/21 10:40:29;;;;;;;24.90;23.17;;;;;;;-142.25;100.00;58004.16;4914362;29;20048;-64
2023/04/21 10:42:55;;;;;;;23.13;21.47;;;;;;;-142.25;100.00;58004.16;4915894;29;20195;-64
2023/04/21 10:45:24;;;;;;;21.80;20.27;;;;;;;-142.25;100.00;58004.16;4914999;29;20056;-64
2023/04/21 10:47:52;;;;;;;23.63;21.97;;;;;;;-142.25;100.00;58004.16;4914921;29;20151;-64
2023/04/21 10:50:19;;;;;;;22.87;21.23;;;;;;;-142.25;100.00;58004.16;4914274;29;20316;-64
2023/04/21 10:52:54;;;;;;;24.63;22.93;;;;;;;-142.25;100.00;58004.16;4914489;29;20052;-64